createdAt,value
2018-02-16T00:04:29.734Z,24.47
2018-02-16T00:09:24.799Z,23.20
2018-02-16T00:14:19.361Z,20.93
2018-02-16T00:19:14.592Z,23.50
2018-02-16T00:24:09.634Z,23.47
2018-02-16T00:29:04.567Z,22.30
2018-02-16T00:33:59.213Z,22.40
2018-02-16T00:38:54.401Z,24.17
2018-02-16T00:43:48.693Z,24.47
2018-02-16T00:48:43.052Z,23.43
2018-02-16T00:53:38.961Z,24.77
2018-02-16T00:58:34.104Z,23.13
2018-02-16T01:03:28.413Z,25.07
2018-02-16T01:08:23.938Z,24.77
2018-02-16T01:13:18.406Z,24.37
2018-02-16T01:18:12.875Z,22.63
2018-02-16T01:23:08.212Z,21.47
2018-02-16T01:28:03.086Z,22.07
2018-02-16T01:32:58.574Z,22.40
2018-02-16T01:37:53.473Z,22.23
2018-02-16T01:42:48.000Z,22.23
2018-02-16T01:47:42.514Z,22.47
2018-02-16T01:52:37.055Z,24.07
2018-02-16T01:57:32.425Z,24.03
2018-02-16T02:02:26.707Z,28.57
2018-02-16T02:07:21.064Z,31.33
2018-02-16T02:12:15.544Z,30.67
2018-02-16T02:17:09.852Z,35.47
2018-02-16T02:22:04.324Z,29.80
2018-02-16T02:26:58.615Z,24.07
2018-02-16T02:31:52.892Z,24.27
2018-02-16T02:36:47.988Z,29.50
2018-02-16T02:41:43.108Z,33.00
2018-02-16T02:46:37.406Z,27.50
2018-02-16T02:51:31.691Z,28.73
2018-02-16T02:56:25.984Z,26.73
2018-02-16T03:01:20.280Z,27.30
2018-02-16T03:06:14.568Z,24.40
2018-02-16T03:11:08.850Z,18.53
2018-02-16T03:16:03.258Z,18.43
2018-02-16T03:20:57.532Z,17.80
2018-02-16T03:25:52.576Z,19.10
2018-02-16T03:30:46.879Z,21.13
2018-02-16T03:35:41.261Z,21.20
2018-02-16T03:40:36.352Z,20.57
2018-02-16T03:45:30.793Z,20.13
2018-02-16T03:50:25.864Z,22.80
2018-02-16T03:55:20.232Z,25.50
2018-02-16T04:00:14.505Z,24.97
2018-02-16T04:05:09.554Z,26.17
2018-02-16T04:10:03.820Z,26.67
2018-02-16T04:14:58.866Z,30.03
2018-02-16T04:19:53.237Z,31.73
2018-02-16T04:24:48.276Z,34.97
2018-02-16T04:29:42.714Z,33.93
2018-02-16T04:34:37.098Z,34.20
2018-02-16T04:39:31.399Z,34.30
2018-02-16T04:44:25.709Z,33.10
2018-02-16T04:49:20.104Z,30.07
2018-02-16T04:54:14.400Z,30.47
2018-02-16T04:59:08.678Z,32.67
2018-02-16T05:04:04.038Z,30.80
2018-02-16T05:08:58.339Z,30.67
2018-02-16T05:13:52.625Z,31.83
2018-02-16T05:18:47.242Z,31.27
2018-02-16T05:23:41.521Z,29.23
2018-02-16T05:28:35.809Z,31.23
2018-02-16T05:33:30.869Z,32.07
2018-02-16T05:38:25.158Z,29.93
2018-02-16T05:43:19.462Z,31.13
2018-02-16T05:48:13.759Z,32.17
2018-02-16T05:53:08.174Z,32.40
2018-02-16T05:58:02.489Z,29.70
2018-02-16T06:02:56.931Z,30.27
2018-02-16T06:07:52.020Z,30.07
2018-02-16T06:12:46.305Z,30.03
2018-02-16T06:17:40.578Z,30.00
2018-02-16T06:22:34.867Z,28.60
2018-02-16T06:27:29.400Z,30.27
2018-02-16T06:32:23.963Z,31.20
2018-02-16T06:37:18.274Z,31.97
2018-02-16T06:42:13.326Z,30.83
2018-02-16T06:47:07.844Z,30.23
2018-02-16T06:52:02.949Z,29.03
2018-02-16T06:56:57.392Z,28.63
2018-02-16T07:01:51.680Z,26.80
2018-02-16T07:06:46.062Z,24.70
2018-02-16T07:11:40.665Z,26.00
2018-02-16T07:16:34.967Z,23.93
2018-02-16T07:21:29.650Z,20.40
2018-02-16T07:26:23.938Z,19.83
2018-02-16T07:31:19.007Z,19.43
2018-02-16T07:36:13.276Z,19.67
2018-02-16T07:41:07.931Z,18.03
2018-02-16T07:46:02.439Z,16.40
2018-02-16T07:50:56.812Z,17.60
2018-02-16T07:55:51.122Z,12.07
2018-02-16T08:00:45.400Z,9.30
2018-02-16T08:05:39.684Z,9.23
2018-02-16T08:10:35.661Z,7.53
2018-02-16T08:15:30.101Z,7.50
2018-02-16T08:20:24.556Z,8.07
2018-02-16T08:25:18.970Z,7.80
2018-02-16T08:30:13.092Z,8.40
2018-02-16T08:35:08.860Z,9.03
2018-02-16T08:40:03.508Z,8.67
2018-02-16T08:44:57.814Z,8.20
2018-02-16T08:49:52.127Z,6.47
2018-02-16T08:54:46.639Z,5.70
2018-02-16T08:59:41.040Z,5.87
2018-02-16T09:04:35.480Z,5.70
2018-02-16T09:09:30.530Z,5.63
2018-02-16T09:14:25.420Z,5.50
2018-02-16T09:19:20.220Z,5.43
2018-02-16T09:24:15.688Z,5.50
2018-02-16T09:29:10.312Z,4.80
2018-02-16T09:34:04.722Z,4.70
2018-02-16T09:39:00.162Z,5.10
2018-02-16T09:43:54.631Z,5.40
2018-02-16T09:48:48.958Z,5.10
2018-02-16T09:53:43.250Z,5.13
2018-02-16T09:58:37.520Z,5.60
2018-02-16T10:03:32.058Z,4.93
2018-02-16T10:08:26.422Z,5.40
2018-02-16T10:13:21.495Z,5.97
2018-02-16T10:18:15.899Z,4.10
2018-02-16T10:23:10.445Z,5.63
2018-02-16T10:28:04.851Z,5.03
2018-02-16T10:32:59.412Z,4.67
2018-02-16T10:37:54.169Z,5.00
2018-02-16T10:42:48.707Z,5.30
2018-02-16T10:47:43.136Z,5.43
2018-02-16T10:52:38.224Z,4.90
2018-02-16T10:57:32.679Z,5.07
2018-02-16T11:02:32.636Z,5.43
2018-02-16T11:07:32.590Z,5.03
2018-02-16T11:12:26.919Z,5.23
2018-02-16T11:17:21.238Z,5.40
2018-02-16T11:22:15.925Z,5.27
2018-02-16T11:27:10.409Z,5.03
2018-02-16T11:32:05.013Z,5.53
2018-02-16T11:36:59.303Z,4.70
2018-02-16T11:41:53.846Z,4.90
2018-02-16T11:46:48.141Z,4.00
2018-02-16T11:51:42.264Z,3.37
2018-02-16T11:56:36.784Z,4.33
2018-02-16T12:01:31.867Z,3.67
2018-02-16T12:06:26.159Z,3.77
2018-02-16T12:11:20.442Z,3.87
2018-02-16T12:16:14.993Z,3.50
2018-02-16T12:21:09.272Z,4.20
2018-02-16T12:26:03.580Z,3.90
2018-02-16T12:30:57.954Z,4.00
2018-02-16T12:35:53.490Z,3.57
2018-02-16T12:40:48.404Z,3.03
2018-02-16T12:45:43.071Z,3.20
2018-02-16T12:50:37.788Z,3.10
2018-02-16T12:55:33.366Z,3.20
2018-02-16T13:00:27.757Z,3.60
2018-02-16T13:05:22.152Z,3.27
2018-02-16T13:10:16.671Z,2.90
2018-02-16T13:15:11.277Z,3.37
2018-02-16T13:20:05.594Z,3.90
2018-02-16T13:24:59.937Z,2.77
2018-02-16T13:29:54.830Z,2.90
2018-02-16T13:34:49.580Z,3.20
2018-02-16T13:39:44.038Z,3.00
2018-02-16T13:44:38.631Z,3.13
2018-02-16T13:49:33.270Z,3.03
2018-02-16T13:54:28.646Z,2.90
2018-02-16T13:59:23.100Z,3.20
2018-02-16T14:04:18.369Z,2.93
2018-02-16T14:09:12.825Z,3.07
2018-02-16T14:14:07.398Z,3.17
2018-02-16T14:19:01.685Z,3.20
2018-02-16T14:23:56.131Z,3.10
2018-02-16T14:28:50.561Z,3.80
2018-02-16T14:33:45.938Z,2.80
2018-02-16T14:38:40.294Z,2.80
2018-02-16T14:43:34.598Z,3.33
2018-02-16T14:48:29.750Z,3.07
2018-02-16T14:53:24.318Z,3.00
2018-02-16T14:58:18.723Z,2.67
2018-02-16T15:03:14.219Z,3.40
2018-02-16T15:08:08.618Z,3.00
2018-02-16T15:13:03.395Z,2.50
2018-02-16T15:17:57.762Z,3.00
2018-02-16T15:22:52.856Z,2.57
2018-02-16T15:27:47.250Z,3.30
2018-02-16T15:32:42.634Z,3.27
2018-02-16T15:37:37.283Z,3.03
2018-02-16T15:42:31.682Z,3.10
2018-02-16T15:47:26.184Z,3.83
2018-02-16T15:52:20.538Z,3.30
2018-02-16T15:57:15.881Z,3.00
2018-02-16T16:02:10.298Z,2.90
2018-02-16T16:07:04.707Z,3.10
2018-02-16T16:11:58.979Z,3.10
2018-02-16T16:16:53.431Z,3.30
2018-02-16T16:21:47.958Z,3.93
2018-02-16T16:26:42.789Z,3.67
2018-02-16T16:31:37.881Z,3.40
2018-02-16T16:36:32.165Z,3.60
2018-02-16T16:41:26.745Z,3.63
2018-02-16T16:46:21.024Z,3.63
2018-02-16T16:51:16.086Z,3.30
2018-02-16T16:56:10.353Z,3.67
2018-02-16T17:01:04.666Z,4.17
2018-02-16T17:05:58.958Z,3.47
2018-02-16T17:10:53.378Z,3.67
2018-02-16T17:15:47.787Z,3.87
2018-02-16T17:20:42.147Z,3.67
2018-02-16T17:25:36.892Z,3.40
2018-02-16T17:30:31.393Z,3.87
2018-02-16T17:35:26.049Z,4.17
2018-02-16T17:40:21.627Z,3.93
2018-02-16T17:45:16.010Z,4.20
2018-02-16T17:50:11.091Z,4.10
2018-02-16T17:55:06.188Z,10.80
2018-02-16T18:00:00.496Z,13.00
2018-02-16T18:04:54.768Z,4.73
2018-02-16T18:09:49.042Z,6.40
2018-02-16T18:14:44.655Z,5.63
2018-02-16T18:19:39.734Z,5.87
2018-02-16T18:24:34.000Z,6.47
2018-02-16T18:29:29.345Z,5.30
2018-02-16T18:34:23.959Z,6.97
2018-02-16T18:39:18.328Z,9.73
2018-02-16T18:44:13.380Z,8.57
2018-02-16T18:49:07.925Z,7.47
2018-02-16T18:54:03.705Z,7.57
2018-02-16T18:58:59.202Z,8.73
2018-02-16T19:03:54.821Z,7.63
2018-02-16T19:08:50.745Z,7.83
2018-02-16T19:13:45.136Z,7.60
2018-02-16T19:18:39.733Z,8.67
2018-02-16T19:23:34.316Z,7.40
2018-02-16T19:28:30.199Z,8.20
2018-02-16T19:33:25.259Z,7.77
2018-02-16T19:38:20.388Z,6.90
2018-02-16T19:43:15.572Z,9.93
2018-02-16T19:48:10.249Z,8.83
2018-02-16T19:53:04.937Z,13.20
2018-02-16T19:57:59.238Z,11.60
2018-02-16T20:02:53.586Z,9.90
2018-02-16T20:07:49.504Z,10.50
2018-02-16T20:12:43.882Z,9.83
2018-02-16T20:17:38.475Z,11.07
2018-02-16T20:22:33.531Z,11.10
2018-02-16T20:27:28.686Z,10.33
2018-02-16T20:32:23.241Z,11.80
2018-02-16T20:37:17.670Z,11.27
2018-02-16T20:42:11.952Z,9.83
2018-02-16T20:47:06.992Z,10.70
2018-02-16T20:52:01.459Z,7.37
2018-02-16T20:56:57.578Z,8.17
2018-02-16T21:01:52.768Z,8.87
2018-02-16T21:06:47.626Z,8.33
2018-02-16T21:11:44.947Z,8.50
2018-02-16T21:16:39.517Z,8.90
2018-02-16T21:21:34.970Z,8.17
2018-02-16T21:26:29.855Z,8.60
2018-02-16T21:31:25.416Z,8.17
2018-02-16T21:36:20.840Z,9.07
2018-02-16T21:41:16.243Z,9.07
2018-02-16T21:46:11.546Z,9.13
2018-02-16T21:51:07.042Z,9.57
2018-02-16T21:56:01.441Z,10.10
2018-02-16T22:00:56.177Z,10.40
2018-02-16T22:05:50.581Z,8.23
2018-02-16T22:10:47.352Z,8.93
2018-02-16T22:15:42.518Z,8.33
2018-02-16T22:20:37.077Z,9.17
2018-02-16T22:25:31.386Z,9.03
2018-02-16T22:30:26.506Z,8.73
2018-02-16T22:35:21.747Z,9.00
2018-02-16T22:40:16.142Z,9.47
2018-02-16T22:45:10.634Z,10.03
2018-02-16T22:50:06.011Z,9.37
2018-02-16T22:55:00.512Z,9.50
2018-02-16T22:59:55.018Z,9.17
2018-02-16T23:04:49.720Z,9.53
2018-02-16T23:09:44.230Z,9.03
2018-02-16T23:14:38.617Z,10.53
2018-02-16T23:19:32.873Z,10.03
2018-02-16T23:24:27.848Z,10.13
2018-02-16T23:29:22.137Z,9.53
2018-02-16T23:34:16.420Z,10.30
2018-02-16T23:39:11.652Z,10.00
2018-02-16T23:44:06.684Z,9.93
2018-02-16T23:49:01.823Z,9.97
2018-02-16T23:53:57.710Z,9.97
2018-02-16T23:58:52.069Z,10.07
